Time;durP1;ratioP1;P1;durP2;ratioP2;P2;SDS_P1;SDS_P2;PMS_P1;PMS_P2;Temp;Humidity;BMP_temperature;BMP_pressure;BME280_temperature;BME280_humidity;BME280_pressure;Samples;Min_cycle;Max_cycle;Signal;HPM_P1;HPM_P2
2022/09/27 00:00:32;;;;;;;3.77;2.40;;;14.50;98.90;;;;;;5032617;28;20484;-49
2022/09/27 00:02:59;;;;;;;4.00;2.10;;;14.20;98.90;;;;;;5032840;28;20435;-48
2022/09/27 00:05:26;;;;;;;5.07;2.60;;;14.40;99.00;;;;;;5032469;28;20517;-48
2022/09/27 00:07:52;;;;;;;5.30;2.03;;;14.50;99.20;;;;;;5032551;28;20435;-49
2022/09/27 00:10:19;;;;;;;2.80;2.20;;;14.40;99.20;;;;;;5032129;28;20442;-49
2022/09/27 00:12:47;;;;;;;2.87;2.60;;;14.40;99.20;;;;;;5032625;28;20443;-49
2022/09/27 00:15:14;;;;;;;3.70;2.57;;;14.50;99.40;;;;;;5032645;28;20483;-49
2022/09/27 00:17:41;;;;;;;3.80;2.30;;;14.40;99.20;;;;;;5032435;28;20430;-49
2022/09/27 00:20:09;;;;;;;2.87;2.07;;;14.60;99.40;;;;;;5032046;28;20632;-49
2022/09/27 00:22:36;;;;;;;2.70;2.47;;;14.50;99.30;;;;;;5032545;28;20488;-50
2022/09/27 00:25:04;;;;;;;4.77;2.50;;;14.50;99.40;;;;;;5032277;28;20487;-50
2022/09/27 00:27:31;;;;;;;5.20;2.50;;;14.40;99.30;;;;;;5032319;28;20798;-51
2022/09/27 00:29:58;;;;;;;3.63;2.07;;;14.40;99.30;;;;;;5014063;28;20450;-48
2022/09/27 00:32:24;;;;;;;2.90;2.33;;;14.70;99.50;;;;;;5014497;28;20448;-49
2022/09/27 00:34:52;;;;;;;3.00;2.13;;;14.30;99.30;;;;;;5032191;28;20454;-48
2022/09/27 00:37:20;;;;;;;3.17;2.23;;;14.40;99.30;;;;;;5032230;28;20432;-49
2022/09/27 00:39:46;;;;;;;3.30;2.20;;;14.40;99.50;;;;;;5031829;28;20441;-48
2022/09/27 00:42:15;;;;;;;3.53;2.83;;;14.40;99.40;;;;;;5014483;28;20448;-49
2022/09/27 00:45:00;;;;;;;5.03;2.10;;;14.10;99.30;;;;;;5031888;28;20481;-50
2022/09/27 00:47:32;;;;;;;2.47;2.27;;;14.40;99.40;;;;;;5032230;28;20439;-50
2022/09/27 00:50:05;;;;;;;4.93;2.73;;;14.30;99.40;;;;;;5031621;28;21002;-50
2022/09/27 00:52:36;;;;;;;5.37;2.40;;;14.20;99.30;;;;;;5014350;28;20450;-50
2022/09/27 00:55:09;;;;;;;3.90;2.50;;;14.40;99.50;;;;;;5014247;28;20487;-49
2022/09/27 00:57:36;;;;;;;3.00;2.33;;;14.30;99.50;;;;;;5031954;28;20430;-50
2022/09/27 01:00:06;;;;;;;5.07;2.07;;;14.10;99.40;;;;;;5013825;28;20921;-48
2022/09/27 01:02:35;;;;;;;2.80;2.33;;;14.30;99.40;;;;;;5031754;28;20774;-47
2022/09/27 01:05:05;;;;;;;2.50;2.30;;;14.40;99.40;;;;;;5031635;28;20485;-48
2022/09/27 01:07:31;;;;;;;3.10;2.67;;;14.30;99.40;;;;;;5032162;28;20954;-48
2022/09/27 01:09:58;;;;;;;3.20;2.43;;;14.30;99.40;;;;;;5031519;28;20434;-48
2022/09/27 01:12:35;;;;;;;4.70;3.20;;;13.90;99.20;;;;;;5014068;28;20514;-49
2022/09/27 01:15:13;;;;;;;2.93;2.50;;;14.30;99.50;;;;;;5013900;28;20465;-49
2022/09/27 01:17:51;;;;;;;2.83;2.53;;;14.20;99.30;;;;;;5031796;28;20435;-49
2022/09/27 01:20:46;;;;;;;7.80;2.60;;;14.00;99.40;;;;;;5031242;28;20442;-48
2022/09/27 01:23:33;;;;;;;3.80;2.43;;;14.10;99.30;;;;;;5013754;28;20552;-49
2022/09/27 01:26:10;;;;;;;4.50;2.80;;;14.20;99.40;;;;;;5013857;28;20501;-49
2022/09/27 01:28:51;;;;;;;3.50;2.30;;;14.40;99.50;;;;;;5031399;28;20426;-49
2022/09/27 01:31:23;;;;;;;3.40;2.10;;;14.20;99.40;;;;;;5013990;28;20958;-49
2022/09/27 01:34:01;;;;;;;3.20;2.30;;;14.20;99.50;;;;;;5031500;28;20529;-48
2022/09/27 01:36:35;;;;;;;3.37;2.40;;;13.60;99.20;;;;;;5014039;28;20454;-49
2022/09/27 01:39:20;;;;;;;2.60;2.20;;;14.30;99.60;;;;;;5013649;28;20457;-49
2022/09/27 01:42:15;;;;;;;2.90;2.30;;;14.40;99.70;;;;;;5012267;28;20900;-49
2022/09/27 01:44:53;;;;;;;2.73;2.07;;;14.40;99.80;;;;;;5013758;28;20470;-48
2022/09/27 01:47:35;;;;;;;3.03;2.40;;;14.10;99.50;;;;;;5013979;28;20514;-48
2022/09/27 01:50:22;;;;;;;4.10;2.97;;;13.80;99.40;;;;;;5013333;28;20462;-54
2022/09/27 01:52:53;;;;;;;4.33;2.30;;;14.30;99.70;;;;;;5013887;28;20517;-49
2022/09/27 01:55:26;;;;;;;3.27;2.40;;;14.10;99.50;;;;;;5013634;28;20467;-49
2022/09/27 01:58:17;;;;;;;3.43;2.23;;;14.10;99.50;;;;;;5031763;28;20818;-49
2022/09/27 02:00:50;;;;;;;2.50;2.30;;;14.10;99.50;;;;;;5013462;28;20453;-49
2022/09/27 02:03:23;;;;;;;3.73;2.23;;;14.10;99.50;;;;;;5031384;28;20436;-49
2022/09/27 02:06:22;;;;;;;2.30;2.10;;;13.90;99.40;;;;;;5031132;28;20479;-49
2022/09/27 02:09:07;;;;;;;4.30;2.13;;;14.40;99.70;;;;;;5015522;28;20590;-49
2022/09/27 02:11:56;;;;;;;4.27;2.47;;;14.40;99.50;;;;;;5034952;28;20924;-49
2022/09/27 02:14:27;;;;;;;3.10;2.07;;;14.10;99.30;;;;;;5017248;28;20504;-49
2022/09/27 02:17:04;;;;;;;2.50;2.00;;;14.50;99.50;;;;;;5017223;28;20817;-49
2022/09/27 02:19:40;;;;;;;3.30;2.40;;;14.20;99.30;;;;;;5016541;28;20877;-48
2022/09/27 02:22:14;;;;;;;2.60;1.90;;;14.20;99.30;;;;;;5017021;28;20454;-49
2022/09/27 02:24:46;;;;;;;4.23;2.27;;;14.20;99.30;;;;;;5016607;28;21011;-49
2022/09/27 02:27:17;;;;;;;2.03;1.83;;;14.60;99.60;;;;;;5016806;28;20479;-49
2022/09/27 02:29:50;;;;;;;3.17;2.37;;;14.60;99.40;;;;;;5016604;28;20443;-49
2022/09/27 02:32:17;;;;;;;3.47;2.17;;;14.50;99.40;;;;;;5016768;28;20458;-49
2022/09/27 02:34:48;;;;;;;4.60;1.97;;;14.30;99.20;;;;;;5034540;28;20465;-49
2022/09/27 02:37:15;;;;;;;4.80;2.53;;;14.30;99.30;;;;;;5016808;28;20455;-49
2022/09/27 02:39:42;;;;;;;4.20;2.30;;;14.30;99.30;;;;;;5016203;28;20980;-49
2022/09/27 02:42:09;;;;;;;2.30;1.80;;;14.30;99.10;;;;;;5016447;28;20955;-49
2022/09/27 02:44:39;;;;;;;3.23;1.77;;;14.10;99.00;;;;;;5016410;28;20475;-49
2022/09/27 02:47:37;;;;;;;4.10;2.43;;;14.30;99.30;;;;;;5016469;28;20529;-49
2022/09/27 02:50:26;;;;;;;3.30;2.27;;;14.40;99.20;;;;;;5016088;28;20440;-49
2022/09/27 02:53:21;;;;;;;4.17;1.83;;;14.50;99.40;;;;;;5034458;28;20424;-49
2022/09/27 02:56:06;;;;;;;2.03;1.83;;;14.30;99.20;;;;;;5016487;28;20476;-49
2022/09/27 02:59:10;;;;;;;3.27;2.27;;;14.30;99.20;;;;;;5033678;28;20449;-49
2022/09/27 03:02:02;;;;;;;2.67;2.00;;;14.40;99.30;;;;;;5016006;28;20952;-49
2022/09/27 03:04:50;;;;;;;3.00;2.00;;;14.40;99.30;;;;;;5015962;28;20479;-50
2022/09/27 03:07:19;;;;;;;4.37;2.33;;;14.40;99.40;;;;;;5016007;28;20453;-49
2022/09/27 03:09:48;;;;;;;2.87;2.43;;;14.50;99.40;;;;;;5033574;28;20746;-49
2022/09/27 03:12:19;;;;;;;3.60;1.80;;;14.40;99.30;;;;;;5016135;28;20455;-50
2022/09/27 03:14:46;;;;;;;4.27;2.40;;;14.80;99.60;;;;;;5015721;28;21046;-49
2022/09/27 03:17:42;;;;;;;3.17;2.10;;;14.40;99.40;;;;;;5033340;28;20947;-49
2022/09/27 03:20:37;;;;;;;3.37;2.07;;;14.40;99.40;;;;;;5032054;28;20472;-49
2022/09/27 03:23:09;;;;;;;3.80;2.40;;;15.00;99.70;;;;;;5015575;28;20457;-49
2022/09/27 03:25:36;;;;;;;3.73;2.00;;;14.30;99.40;;;;;;5015656;28;20567;-48
2022/09/27 03:28:04;;;;;;;2.50;2.10;;;14.30;99.40;;;;;;5015777;28;20849;-49
2022/09/27 03:30:31;;;;;;;2.10;1.90;;;14.00;99.30;;;;;;5015469;28;20453;-49
2022/09/27 03:32:58;;;;;;;4.50;3.30;;;14.70;99.60;;;;;;5015594;28;20457;-49
2022/09/27 03:35:43;;;;;;;2.90;2.10;;;14.40;99.40;;;;;;5015485;28;20593;-49
2022/09/27 03:38:11;;;;;;;2.70;2.30;;;14.20;99.30;;;;;;5015575;28;20454;-49
2022/09/27 03:40:38;;;;;;;8.03;2.97;;;14.10;99.50;;;;;;5015098;28;20512;-49
2022/09/27 03:43:06;;;;;;;3.93;2.50;;;13.90;99.40;;;;;;5015247;28;20963;-50
2022/09/27 03:45:33;;;;;;;4.27;2.40;;;14.30;99.60;;;;;;5015221;28;20986;-49
2022/09/27 03:48:04;;;;;;;5.00;2.77;;;14.30;99.50;;;;;;5015483;28;20523;-49
2022/09/27 03:50:30;;;;;;;5.17;2.47;;;14.50;99.70;;;;;;5015094;28;20455;-48
2022/09/27 03:52:57;;;;;;;3.23;2.60;;;14.30;99.90;;;;;;5033235;28;20438;-48
2022/09/27 03:55:26;;;;;;;4.17;2.90;;;14.30;99.90;;;;;;5015318;28;20810;-50
2022/09/27 03:57:53;;;;;;;3.73;3.07;;;14.40;99.90;;;;;;5015049;28;20445;-49
2022/09/27 04:00:20;;;;;;;5.10;2.40;;;14.60;99.90;;;;;;5032615;28;20441;-49
2022/09/27 04:02:47;;;;;;;3.17;2.87;;;14.50;99.90;;;;;;5032789;28;20398;-49
2022/09/27 04:05:23;;;;;;;3.23;2.93;;;14.30;99.90;;;;;;5032644;28;20553;-49
2022/09/27 04:07:53;;;;;;;3.17;2.50;;;14.00;99.90;;;;;;5014915;28;20458;-50
2022/09/27 04:10:20;;;;;;;3.57;2.67;;;14.30;99.90;;;;;;5032304;28;20497;-49
2022/09/27 04:12:49;;;;;;;3.30;2.37;;;14.10;99.90;;;;;;5015082;28;20451;-49
2022/09/27 04:15:16;;;;;;;4.20;2.83;;;14.30;99.90;;;;;;5014743;28;20561;-49
2022/09/27 04:17:48;;;;;;;4.50;2.30;;;14.20;99.90;;;;;;5032397;28;20413;-49
2022/09/27 04:20:38;;;;;;;2.90;2.43;;;14.30;99.90;;;;;;5031947;28;20481;-48
2022/09/27 04:23:08;;;;;;;3.70;2.57;;;14.80;99.90;;;;;;5014627;28;20446;-49
2022/09/27 04:25:38;;;;;;;3.70;2.70;;;14.40;99.90;;;;;;5033495;23;20560;-49
2022/09/27 04:28:15;;;;;;;3.90;2.70;;;14.30;99.90;;;;;;5011300;28;20539;-48
2022/09/27 04:30:42;;;;;;;3.07;2.40;;;13.70;99.90;;;;;;5010216;28;20541;-48
2022/09/27 04:33:12;;;;;;;2.50;2.30;;;14.20;99.90;;;;;;5011893;28;20795;-48
2022/09/27 04:38:29;;;;;;;3.90;2.40;;;14.20;99.90;;;;;;5010429;28;20524;-47
2022/09/27 04:40:56;;;;;;;5.93;3.20;;;14.20;99.90;;;;;;5010587;28;20511;-49
2022/09/27 04:43:25;;;;;;;5.37;2.77;;;14.20;99.90;;;;;;5010305;28;20467;-49
2022/09/27 04:45:51;;;;;;;5.40;2.70;;;14.20;99.90;;;;;;5010305;28;20522;-48
2022/09/27 04:48:18;;;;;;;4.60;2.77;;;14.20;99.90;;;;;;5010452;28;20448;-48
2022/09/27 04:50:45;;;;;;;3.60;2.70;;;14.10;99.90;;;;;;5010311;28;20463;-48
2022/09/27 04:53:14;;;;;;;3.70;2.43;;;14.10;99.90;;;;;;5010818;28;20452;-48
2022/09/27 04:55:44;;;;;;;5.30;3.00;;;14.20;99.90;;;;;;5010242;28;20567;-48
2022/09/27 04:58:10;;;;;;;3.70;2.77;;;14.10;99.90;;;;;;5009900;28;20514;-49
2022/09/27 05:00:39;;;;;;;2.47;2.20;;;14.50;99.90;;;;;;5011119;28;20867;-48
2022/09/27 05:03:26;;;;;;;2.63;1.97;;;14.20;99.90;;;;;;5011352;28;20447;-49
2022/09/27 05:05:57;;;;;;;4.77;3.00;;;14.20;99.90;;;;;;5009974;28;20483;-48
2022/09/27 05:08:24;;;;;;;3.33;2.77;;;13.80;99.90;;;;;;5009807;28;20451;-47
2022/09/27 05:11:10;;;;;;;10.27;4.83;;;14.00;99.90;;;;;;5011670;28;20428;-47
2022/09/27 05:13:37;;;;;;;3.40;2.97;;;13.80;99.90;;;;;;5010136;28;20460;-48
2022/09/27 05:16:07;;;;;;;5.13;2.33;;;14.00;99.90;;;;;;5010305;28;20441;-48
2022/09/27 05:18:45;;;;;;;4.90;3.17;;;13.90;99.90;;;;;;5009526;28;20467;-48
2022/09/27 05:21:31;;;;;;;5.87;3.80;;;13.80;99.90;;;;;;5011298;28;20933;-49
2022/09/27 05:23:59;;;;;;;3.13;2.60;;;13.90;99.90;;;;;;5009568;28;20479;-48
2022/09/27 05:26:27;;;;;;;3.87;3.13;;;13.90;99.90;;;;;;5009707;28;20500;-48
2022/09/27 05:28:53;;;;;;;5.43;2.93;;;13.90;99.90;;;;;;5010464;28;20526;-48
2022/09/27 05:31:21;;;;;;;4.23;3.43;;;14.10;99.90;;;;;;5009525;28;20817;-48
2022/09/27 05:33:48;;;;;;;3.67;3.27;;;14.10;99.90;;;;;;5010866;28;20485;-49
2022/09/27 05:36:36;;;;;;;7.27;4.20;;;14.00;99.90;;;;;;5009075;28;20426;-48
2022/09/27 05:39:03;;;;;;;7.33;3.10;;;13.50;99.90;;;;;;5010540;28;20439;-49
2022/09/27 05:41:31;;;;;;;7.73;6.00;;;13.80;99.90;;;;;;5009526;28;20466;-48
2022/09/27 05:43:58;;;;;;;27.47;24.80;;;14.00;99.90;;;;;;5011188;28;20576;-48
2022/09/27 05:46:26;;;;;;;5.77;3.30;;;13.80;99.90;;;;;;5013012;28;20468;-48
2022/09/27 05:48:52;;;;;;;4.33;2.90;;;14.10;99.90;;;;;;5012596;28;20490;-49
2022/09/27 05:51:19;;;;;;;5.40;2.60;;;14.10;99.90;;;;;;5013662;28;20457;-47
2022/09/27 05:53:46;;;;;;;4.77;3.00;;;13.90;99.90;;;;;;5012860;28;20478;-49
2022/09/27 05:56:21;;;;;;;5.27;2.90;;;14.00;99.90;;;;;;5013424;28;20852;-49
2022/09/27 05:59:04;;;;;;;4.47;2.97;;;14.10;99.90;;;;;;5012770;28;20460;-49
2022/09/27 06:01:49;;;;;;;7.20;3.60;;;13.90;99.90;;;;;;5012663;28;20463;-49
2022/09/27 06:04:54;;;;;;;4.37;3.10;;;13.90;99.90;;;;;;4954141;28;20433;-49
2022/09/27 06:07:48;;;;;;;8.90;3.00;;;13.70;99.90;;;;;;4931933;29;20487;-48
2022/09/27 06:10:20;;;;;;;5.90;3.13;;;14.20;99.90;;;;;;4988775;28;20492;-47
2022/09/27 06:12:47;;;;;;;5.47;3.07;;;14.00;99.90;;;;;;5013642;28;20451;-48
2022/09/27 06:15:32;;;;;;;4.07;2.63;;;13.90;99.90;;;;;;5012654;28;20838;-48
2022/09/27 06:18:05;;;;;;;6.33;3.17;;;14.00;99.90;;;;;;5013561;28;20448;-49
2022/09/27 06:20:33;;;;;;;7.70;3.77;;;14.00;99.90;;;;;;5012569;28;20519;-49
2022/09/27 06:23:04;;;;;;;3.03;2.73;;;14.00;99.90;;;;;;5014001;28;20983;-48
2022/09/27 06:25:31;;;;;;;6.83;3.60;;;14.00;99.90;;;;;;5012629;28;20521;-49
2022/09/27 06:28:10;;;;;;;4.83;3.63;;;14.00;99.90;;;;;;5012707;28;20491;-48
2022/09/27 06:30:40;;;;;;;3.43;2.73;;;14.00;99.90;;;;;;5012361;28;20445;-48
2022/09/27 06:33:17;;;;;;;4.33;2.47;;;14.00;99.90;;;;;;5012697;28;20537;-48
2022/09/27 06:35:49;;;;;;;4.27;3.10;;;13.90;99.90;;;;;;5012446;28;20473;-49
2022/09/27 06:38:20;;;;;;;4.40;3.30;;;14.30;99.90;;;;;;5012146;28;20439;-48
2022/09/27 06:40:52;;;;;;;4.27;2.93;;;14.10;99.90;;;;;;5012239;28;20451;-50
2022/09/27 06:43:28;;;;;;;4.73;2.60;;;14.10;99.90;;;;;;5012545;28;20462;-48
2022/09/27 06:46:07;;;;;;;2.90;2.60;;;13.70;99.90;;;;;;5012270;28;20831;-48
2022/09/27 06:48:54;;;;;;;3.70;3.30;;;14.00;99.90;;;;;;5013464;28;20961;-48
2022/09/27 06:51:21;;;;;;;4.93;3.57;;;14.10;99.90;;;;;;5012379;28;20460;-48
2022/09/27 06:53:49;;;;;;;13.10;9.50;;;13.90;99.90;;;;;;5011665;28;20822;-49
2022/09/27 06:56:15;;;;;;;11.83;4.27;;;14.10;99.90;;;;;;5012207;28;20528;-48
2022/09/27 07:01:45;;;;;;;4.33;3.30;;;14.10;99.90;;;;;;5013594;28;20440;-47
2022/09/27 07:04:45;;;;;;;4.33;3.00;;;13.80;99.90;;;;;;4998980;28;20512;-48
2022/09/27 07:07:28;;;;;;;4.00;2.90;;;13.90;99.90;;;;;;5013375;28;20482;-48
2022/09/27 07:09:55;;;;;;;4.40;3.60;;;14.30;99.90;;;;;;5011170;28;20466;-48
2022/09/27 07:12:22;;;;;;;4.63;3.50;;;14.20;99.90;;;;;;5011365;28;20832;-47
2022/09/27 07:14:48;;;;;;;3.30;3.00;;;14.10;99.90;;;;;;5011797;28;20546;-49
2022/09/27 07:17:17;;;;;;;5.70;4.07;;;14.10;99.90;;;;;;5011668;28;20828;-49
2022/09/27 07:19:47;;;;;;;8.60;3.23;;;14.00;99.90;;;;;;5011399;28;20531;-49
2022/09/27 07:22:14;;;;;;;5.90;3.93;;;14.30;99.90;;;;;;5011645;28;20456;-49
2022/09/27 07:24:43;;;;;;;5.77;3.47;;;14.00;99.90;;;;;;5011754;28;20482;-48
2022/09/27 07:27:11;;;;;;;3.87;3.47;;;14.20;99.90;;;;;;5011630;28;20567;-49
2022/09/27 07:29:38;;;;;;;4.57;3.60;;;14.20;99.90;;;;;;5010896;28;20457;-48
2022/09/27 07:32:05;;;;;;;4.13;3.70;;;14.20;99.90;;;;;;5011778;28;20459;-48
2022/09/27 07:34:33;;;;;;;4.97;4.10;;;14.20;99.90;;;;;;5011855;28;20478;-48
2022/09/27 07:37:04;;;;;;;6.53;3.43;;;14.30;99.90;;;;;;5011506;28;20631;-48
2022/09/27 07:39:33;;;;;;;4.23;3.80;;;14.20;99.90;;;;;;5011739;28;20810;-48
2022/09/27 07:42:02;;;;;;;7.40;3.57;;;14.20;99.90;;;;;;5011252;28;20459;-48
2022/09/27 07:44:28;;;;;;;3.97;3.30;;;14.20;99.90;;;;;;5011030;28;20472;-47
2022/09/27 07:47:18;;;;;;;4.57;3.10;;;14.40;99.90;;;;;;5011111;28;20575;-48
2022/09/27 07:50:04;;;;;;;6.60;3.97;;;14.40;99.90;;;;;;5011192;28;20537;-49
2022/09/27 07:52:51;;;;;;;5.33;4.20;;;14.20;99.90;;;;;;5012669;28;20496;-49
2022/09/27 07:55:32;;;;;;;8.63;3.80;;;14.20;99.90;;;;;;5011207;28;20502;-49
2022/09/27 07:58:09;;;;;;;5.77;4.37;;;14.20;99.90;;;;;;5010976;28;20452;-49
2022/09/27 08:00:36;;;;;;;4.70;4.17;;;14.10;99.90;;;;;;5012163;28;20740;-48
2022/09/27 08:03:07;;;;;;;4.13;3.50;;;13.80;99.90;;;;;;5010989;28;21035;-49
2022/09/27 08:05:35;;;;;;;4.30;3.23;;;14.20;99.90;;;;;;5011978;28;20470;-49
2022/09/27 08:08:04;;;;;;;3.97;3.20;;;14.30;99.90;;;;;;5010909;28;21061;-49
2022/09/27 08:10:32;;;;;;;5.00;3.70;;;14.30;99.90;;;;;;5011154;28;20459;-49
2022/09/27 08:13:02;;;;;;;4.90;4.20;;;14.30;99.90;;;;;;5010822;28;20849;-48
2022/09/27 08:15:28;;;;;;;4.10;3.47;;;14.30;99.90;;;;;;5010616;28;20546;-55
2022/09/27 08:17:56;;;;;;;3.50;3.20;;;14.30;99.90;;;;;;5010825;28;20479;-49
2022/09/27 08:20:46;;;;;;;5.37;3.33;;;14.40;99.90;;;;;;5011822;28;20951;-48
2022/09/27 08:23:46;;;;;;;3.93;3.57;;;14.60;99.90;;;;;;4992024;28;20487;-48
2022/09/27 08:26:28;;;;;;;3.80;3.10;;;14.10;99.90;;;;;;5010738;28;20459;-48
2022/09/27 08:29:11;;;;;;;3.20;2.83;;;14.40;99.90;;;;;;5010236;28;20441;-48
2022/09/27 08:31:42;;;;;;;4.70;3.10;;;14.30;99.90;;;;;;5010730;28;20455;-48
2022/09/27 08:34:09;;;;;;;5.33;3.43;;;14.30;99.90;;;;;;5010518;28;20507;-48
2022/09/27 08:36:36;;;;;;;4.97;3.17;;;13.80;99.90;;;;;;5010376;28;20457;-47
2022/09/27 08:39:04;;;;;;;7.23;3.00;;;14.40;99.90;;;;;;5010337;28;20444;-48
2022/09/27 08:41:45;;;;;;;3.67;3.27;;;14.30;99.90;;;;;;5010609;28;20444;-48
2022/09/27 08:44:20;;;;;;;5.67;3.03;;;14.20;99.90;;;;;;5010285;28;20480;-48
2022/09/27 08:47:08;;;;;;;3.90;3.30;;;14.50;99.90;;;;;;5010003;28;20458;-48
2022/09/27 08:49:39;;;;;;;5.07;3.50;;;14.30;99.90;;;;;;5010031;28;20455;-48
2022/09/27 08:52:12;;;;;;;3.90;3.50;;;14.30;99.90;;;;;;5009262;28;20466;-49
2022/09/27 08:54:40;;;;;;;10.00;4.30;;;14.40;99.90;;;;;;5010689;28;20500;-49
2022/09/27 08:57:11;;;;;;;4.50;3.63;;;14.00;99.90;;;;;;5010195;28;20462;-48
2022/09/27 08:59:42;;;;;;;4.67;4.00;;;14.00;99.90;;;;;;5009302;28;20469;-48
2022/09/27 09:02:17;;;;;;;4.83;4.03;;;14.40;99.90;;;;;;5011400;28;20923;-49
2022/09/27 09:04:49;;;;;;;9.60;5.30;;;14.60;99.90;;;;;;5010006;28;20470;-48
2022/09/27 09:07:32;;;;;;;5.33;4.10;;;14.10;99.90;;;;;;5010213;28;20475;-48
2022/09/27 09:10:05;;;;;;;5.13;4.27;;;14.60;99.90;;;;;;5009978;28;20850;-49
2022/09/27 09:12:48;;;;;;;4.10;3.70;;;14.50;99.90;;;;;;5010281;28;21038;-47
2022/09/27 09:15:30;;;;;;;4.30;3.90;;;14.90;99.90;;;;;;5010320;28;20980;-49
2022/09/27 09:18:17;;;;;;;4.47;4.07;;;14.40;99.90;;;;;;5011028;28;20795;-49
2022/09/27 09:21:18;;;;;;;6.73;3.70;;;14.40;99.90;;;;;;5014429;28;21116;-49
2022/09/27 09:24:02;;;;;;;6.63;3.87;;;14.40;99.90;;;;;;5013722;28;20969;-48
2022/09/27 09:26:36;;;;;;;4.60;3.40;;;14.30;99.90;;;;;;5014014;28;20458;-48
2022/09/27 09:29:23;;;;;;;4.33;3.07;;;14.60;99.90;;;;;;5013532;28;20482;-47
2022/09/27 09:31:59;;;;;;;4.20;3.20;;;14.70;99.90;;;;;;5015202;28;20536;-48
2022/09/27 09:34:31;;;;;;;5.73;5.13;;;14.70;99.90;;;;;;5013726;28;20475;-48
2022/09/27 09:37:02;;;;;;;4.67;3.80;;;14.70;99.90;;;;;;5013668;28;20549;-49
2022/09/27 09:39:35;;;;;;;5.40;3.30;;;14.40;99.90;;;;;;5013755;28;20771;-48
2022/09/27 09:42:10;;;;;;;6.43;4.93;;;14.90;99.90;;;;;;5014036;28;20848;-47
2022/09/27 09:44:46;;;;;;;6.53;3.90;;;14.70;99.90;;;;;;5015405;28;20793;-47
2022/09/27 09:47:26;;;;;;;4.33;3.77;;;14.70;99.90;;;;;;5013789;28;20451;-49
2022/09/27 09:49:57;;;;;;;3.63;3.20;;;15.00;99.90;;;;;;5013493;28;20446;-48
2022/09/27 09:52:29;;;;;;;3.73;2.87;;;14.70;99.90;;;;;;5013422;28;20452;-48
2022/09/27 09:55:02;;;;;;;5.13;4.50;;;14.60;99.90;;;;;;5013495;28;20489;-48
2022/09/27 09:57:38;;;;;;;5.97;4.47;;;14.70;99.90;;;;;;5014076;28;20846;-48
2022/09/27 10:00:13;;;;;;;4.90;3.67;;;14.90;99.90;;;;;;5013232;28;20456;-48
2022/09/27 10:02:46;;;;;;;5.87;4.00;;;14.80;99.90;;;;;;5013580;28;20452;-49
2022/09/27 10:05:22;;;;;;;5.60;5.00;;;14.60;99.90;;;;;;5013412;28;20476;-49
2022/09/27 10:08:00;;;;;;;5.27;4.17;;;14.90;99.90;;;;;;5012904;28;20514;-49
2022/09/27 10:10:27;;;;;;;6.53;4.60;;;14.80;99.90;;;;;;5012469;28;20938;-48
2022/09/27 10:12:56;;;;;;;5.13;4.17;;;14.80;99.90;;;;;;5014443;28;20443;-47
2022/09/27 10:15:30;;;;;;;6.13;4.47;;;14.90;99.90;;;;;;5012763;28;20506;-48
2022/09/27 10:17:59;;;;;;;4.53;3.53;;;15.50;99.90;;;;;;5013833;28;20460;-48
2022/09/27 10:20:33;;;;;;;4.40;4.00;;;15.20;99.90;;;;;;5013844;28;20948;-48
2022/09/27 10:23:05;;;;;;;7.20;3.90;;;15.20;99.90;;;;;;5012703;28;20546;-48
2022/09/27 10:25:53;;;;;;;4.30;3.90;;;15.40;99.90;;;;;;5013120;28;20718;-48
2022/09/27 10:28:44;;;;;;;4.97;3.87;;;15.30;99.90;;;;;;5010984;28;20502;-46
2022/09/27 10:31:14;;;;;;;3.57;3.27;;;15.60;99.90;;;;;;5012433;28;20444;-48
2022/09/27 10:33:56;;;;;;;3.93;3.40;;;15.30;99.90;;;;;;5012454;28;20855;-48
2022/09/27 10:36:28;;;;;;;6.80;4.80;;;15.60;99.90;;;;;;5012567;28;20497;-48
2022/09/27 10:38:56;;;;;;;4.40;4.00;;;16.00;99.90;;;;;;5012164;28;20448;-48
2022/09/27 10:41:35;;;;;;;4.07;3.67;;;15.80;99.90;;;;;;5012508;28;20468;-48
2022/09/27 10:44:25;;;;;;;3.80;3.50;;;15.60;99.90;;;;;;5011990;28;20541;-48
2022/09/27 10:47:09;;;;;;;6.13;3.57;;;15.90;99.90;;;;;;5012027;28;20430;-49
2022/09/27 10:49:51;;;;;;;7.10;6.23;;;15.80;99.90;;;;;;5011666;28;20984;-47
2022/09/27 10:52:33;;;;;;;7.57;6.23;;;16.10;99.90;;;;;;5011754;28;20466;-48
2022/09/27 10:55:05;;;;;;;5.23;3.80;;;15.90;99.90;;;;;;5011991;28;20472;-48
2022/09/27 10:57:33;;;;;;;3.30;3.00;;;16.00;99.90;;;;;;5011751;28;20856;-48
2022/09/27 11:00:05;;;;;;;4.80;4.30;;;16.00;99.90;;;;;;5011578;28;20450;-48
2022/09/27 11:02:35;;;;;;;5.03;3.20;;;16.10;99.90;;;;;;5011823;28;20453;-48
2022/09/27 11:05:11;;;;;;;4.03;3.40;;;16.00;99.90;;;;;;5011579;28;20835;-48
2022/09/27 11:07:48;;;;;;;4.17;3.77;;;16.10;99.90;;;;;;5012039;28;20804;-46
2022/09/27 11:10:27;;;;;;;3.80;3.40;;;16.10;99.90;;;;;;5011296;28;20447;-47
2022/09/27 11:13:14;;;;;;;5.47;2.97;;;16.10;99.90;;;;;;5013124;28;20970;-48
2022/09/27 11:15:57;;;;;;;3.90;3.50;;;16.30;99.90;;;;;;5011705;28;20839;-48
2022/09/27 11:18:34;;;;;;;5.07;3.50;;;16.20;99.90;;;;;;5011227;28;20448;-48
2022/09/27 11:21:12;;;;;;;4.03;3.70;;;16.10;99.90;;;;;;5011737;28;20456;-48
2022/09/27 11:23:58;;;;;;;4.50;3.33;;;16.20;99.90;;;;;;5011399;28;20506;-47
2022/09/27 11:26:36;;;;;;;4.23;3.73;;;16.20;99.90;;;;;;5011771;28;20538;-48
2022/09/27 11:29:18;;;;;;;5.83;4.00;;;16.10;99.90;;;;;;5011405;28;20476;-49
2022/09/27 11:32:18;;;;;;;3.73;3.40;;;16.10;99.90;;;;;;5013154;28;20915;-48
2022/09/27 11:35:08;;;;;;;3.80;3.50;;;15.80;99.90;;;;;;5011922;28;20443;-48
2022/09/27 11:37:46;;;;;;;6.13;5.53;;;16.00;99.90;;;;;;5011365;28;20552;-49
2022/09/27 11:40:23;;;;;;;5.20;3.47;;;15.90;99.90;;;;;;5010680;28;20419;-47
2022/09/27 11:43:26;;;;;;;4.40;3.90;;;15.90;99.90;;;;;;5011152;28;20462;-49
2022/09/27 11:46:00;;;;;;;5.20;4.70;;;15.90;99.90;;;;;;5006895;28;20507;-48
2022/09/27 11:48:47;;;;;;;6.70;4.50;;;15.80;99.90;;;;;;5010730;28;20483;-48
2022/09/27 11:51:30;;;;;;;4.10;3.80;;;15.90;99.90;;;;;;5011487;28;20941;-48
2022/09/27 11:54:16;;;;;;;5.70;4.10;;;15.80;99.90;;;;;;5011217;28;20526;-48
2022/09/27 11:56:49;;;;;;;4.77;2.50;;;15.80;99.90;;;;;;5008651;28;20457;-49
2022/09/27 11:59:36;;;;;;;6.93;1.97;;;15.60;99.90;;;;;;5010859;28;20507;-48
2022/09/27 12:02:16;;;;;;;2.47;1.40;;;15.50;99.90;;;;;;5010645;28;20452;-48
2022/09/27 12:04:56;;;;;;;4.17;2.20;;;15.50;99.90;;;;;;5011728;28;20530;-47
2022/09/27 12:07:31;;;;;;;3.00;2.23;;;15.20;99.90;;;;;;5010890;28;20975;-47
2022/09/27 12:10:03;;;;;;;6.07;3.37;;;15.00;99.90;;;;;;5010172;28;20486;-48
2022/09/27 12:12:34;;;;;;;5.03;3.00;;;14.90;99.90;;;;;;5010899;28;20476;-48
2022/09/27 12:15:04;;;;;;;2.70;2.47;;;14.70;99.90;;;;;;5010878;28;20481;-47
2022/09/27 12:17:34;;;;;;;4.43;2.60;;;14.80;99.90;;;;;;5011830;28;20843;-47
2022/09/27 12:20:10;;;;;;;6.13;2.87;;;14.20;99.90;;;;;;5012007;28;20989;-47
2022/09/27 12:22:51;;;;;;;4.10;3.33;;;14.70;99.90;;;;;;5010583;28;20456;-47
2022/09/27 12:25:25;;;;;;;5.13;4.00;;;14.60;99.90;;;;;;5010487;28;20554;-47
2022/09/27 12:28:17;;;;;;;6.70;4.60;;;14.50;99.90;;;;;;5010472;28;20456;-48
2022/09/27 12:30:53;;;;;;;8.30;7.50;;;14.50;99.90;;;;;;5010382;28;20949;-48
2022/09/27 12:33:30;;;;;;;8.70;6.50;;;14.40;99.90;;;;;;5010437;28;20448;-47
2022/09/27 12:36:02;;;;;;;7.10;5.67;;;14.20;99.90;;;;;;5010216;28;20466;-48
2022/09/27 12:38:39;;;;;;;5.67;4.47;;;14.50;99.90;;;;;;5009797;28;20454;-48
2022/09/27 12:41:10;;;;;;;5.33;3.27;;;14.50;99.90;;;;;;5010093;28;20450;-47
2022/09/27 12:43:50;;;;;;;4.33;2.97;;;14.50;99.90;;;;;;5010061;28;20475;-47
2022/09/27 12:46:30;;;;;;;4.23;2.87;;;14.40;99.90;;;;;;5010163;28;20742;-48
2022/09/27 12:49:05;;;;;;;4.30;3.03;;;15.00;99.90;;;;;;5009458;28;20479;-48
2022/09/27 12:51:37;;;;;;;7.20;2.73;;;15.30;99.90;;;;;;5010323;28;20510;-47
2022/09/27 12:54:31;;;;;;;7.03;3.50;;;15.60;99.90;;;;;;5010346;28;20472;-47
2022/09/27 12:57:06;;;;;;;3.80;2.17;;;16.00;99.90;;;;;;5010454;28;20452;-48
2022/09/27 12:59:50;;;;;;;3.63;3.33;;;16.20;99.90;;;;;;5009671;28;20521;-48
2022/09/27 13:02:31;;;;;;;4.20;2.80;;;16.30;99.90;;;;;;5011208;28;20468;-48
2022/09/27 13:05:21;;;;;;;2.37;2.00;;;16.50;99.90;;;;;;5010214;28;20479;-48
2022/09/27 13:08:00;;;;;;;3.83;2.40;;;16.40;99.90;;;;;;5010628;28;20506;-47
2022/09/27 13:10:39;;;;;;;4.37;2.60;;;16.40;99.90;;;;;;5010298;28;20491;-47
2022/09/27 13:13:25;;;;;;;2.90;2.60;;;16.40;99.90;;;;;;5010033;28;20462;-48
2022/09/27 13:15:57;;;;;;;3.03;2.20;;;16.10;99.90;;;;;;5009896;28;20961;-48
2022/09/27 13:18:33;;;;;;;2.50;1.93;;;16.40;99.90;;;;;;5009427;28;20464;-49
2022/09/27 13:21:01;;;;;;;3.97;1.93;;;16.70;99.90;;;;;;5011689;28;20518;-46
2022/09/27 13:23:51;;;;;;;3.43;2.03;;;16.70;99.90;;;;;;5009411;28;20986;-47
2022/09/27 13:26:41;;;;;;;2.90;2.20;;;16.80;99.90;;;;;;5009982;28;20463;-47
2022/09/27 13:29:26;;;;;;;3.70;2.07;;;16.70;99.90;;;;;;5009448;28;20591;-47
2022/09/27 13:32:16;;;;;;;3.67;2.13;;;16.90;99.90;;;;;;5009683;28;20472;-47